Time;durP1;ratioP1;P1;durP2;ratioP2;P2;SDS_P1;SDS_P2;PMS_P1;PMS_P2;Temp;Humidity;BMP_temperature;BMP_pressure;BME280_temperature;BME280_humidity;BME280_pressure;Samples;Min_cycle;Max_cycle;Signal;HPM_P1;HPM_P2
2023/10/01 00:01:17;;;;;;;5.47;2.38;;;11.80;99.90;;;;;;5036300;28;20026;-66
2023/10/01 00:03:43;;;;;;;5.78;3.33;;;11.80;99.90;;;;;;5036118;28;20072;-66
2023/10/01 00:06:08;;;;;;;5.68;3.38;;;12.00;99.90;;;;;;5036107;28;20024;-66
2023/10/01 00:08:34;;;;;;;9.63;3.47;;;12.00;99.90;;;;;;5036669;28;20041;-66
2023/10/01 00:11:00;;;;;;;8.20;3.38;;;12.20;99.90;;;;;;5036177;28;20025;-66
2023/10/01 00:13:26;;;;;;;6.05;2.92;;;12.10;99.90;;;;;;5036098;28;20034;-66
2023/10/01 00:15:54;;;;;;;5.45;3.03;;;12.10;99.90;;;;;;5036308;28;20052;-66
2023/10/01 00:18:20;;;;;;;5.90;3.10;;;12.00;99.90;;;;;;5036007;28;20041;-66
2023/10/01 00:20:46;;;;;;;7.75;2.70;;;11.90;99.90;;;;;;5035917;28;20066;-66
2023/10/01 00:23:12;;;;;;;8.00;4.07;;;11.80;99.90;;;;;;5035772;28;20083;-66
2023/10/01 00:25:38;;;;;;;7.50;3.72;;;11.70;99.90;;;;;;5035893;28;20118;-66
2023/10/01 00:28:06;;;;;;;8.30;3.00;;;11.50;99.90;;;;;;5036252;28;20053;-66
2023/10/01 00:30:31;;;;;;;13.18;3.67;;;11.40;99.90;;;;;;5036611;28;20021;-66
2023/10/01 00:32:58;;;;;;;10.10;3.20;;;11.40;99.90;;;;;;5036387;28;20028;-66
2023/10/01 00:35:25;;;;;;;8.80;3.10;;;11.50;99.90;;;;;;5037573;28;20057;-66
2023/10/01 00:37:51;;;;;;;7.30;3.13;;;11.60;99.90;;;;;;5039412;28;20029;-66
2023/10/01 00:40:17;;;;;;;8.52;3.42;;;11.70;99.90;;;;;;5039621;28;20189;-66
2023/10/01 00:42:44;;;;;;;6.47;3.30;;;11.80;99.90;;;;;;5039959;28;20025;-66
2023/10/01 00:45:14;;;;;;;10.63;3.35;;;11.80;99.90;;;;;;5039046;28;20053;-66
2023/10/01 00:47:41;;;;;;;5.65;2.78;;;11.90;99.90;;;;;;5040382;28;20025;-66
2023/10/01 00:50:16;;;;;;;8.38;3.05;;;11.90;99.90;;;;;;5039257;28;20017;-66
2023/10/01 00:52:42;;;;;;;8.13;3.13;;;11.90;99.90;;;;;;5039408;28;20056;-66
2023/10/01 00:55:08;;;;;;;7.38;3.22;;;11.70;99.90;;;;;;5039032;28;20026;-66
2023/10/01 00:57:37;;;;;;;6.15;3.08;;;11.60;99.90;;;;;;5039111;28;20034;-66
2023/10/01 01:00:12;;;;;;;4.90;2.75;;;11.40;99.90;;;;;;5039019;28;20055;-66
2023/10/01 01:02:39;;;;;;;7.00;3.10;;;11.30;99.90;;;;;;5039480;28;20116;-66
2023/10/01 01:05:19;;;;;;;4.55;2.65;;;11.30;99.90;;;;;;5038790;28;20025;-66
2023/10/01 01:07:48;;;;;;;4.38;2.60;;;11.40;99.90;;;;;;5039815;28;20026;-66
2023/10/01 01:10:18;;;;;;;5.95;2.67;;;11.60;99.90;;;;;;5038927;28;20029;-66
2023/10/01 01:12:51;;;;;;;7.20;3.53;;;11.60;99.90;;;;;;5038547;28;20024;-66
2023/10/01 01:15:16;;;;;;;7.22;3.22;;;11.60;99.90;;;;;;5039396;28;20030;-66
2023/10/01 01:17:43;;;;;;;6.95;3.22;;;11.60;99.90;;;;;;5038773;28;20017;-66
2023/10/01 01:20:09;;;;;;;7.20;3.17;;;11.60;99.90;;;;;;5039110;28;20026;-66
2023/10/01 01:22:37;;;;;;;4.97;3.00;;;11.60;99.90;;;;;;5039229;28;20033;-66
2023/10/01 01:25:10;;;;;;;8.82;2.70;;;11.70;99.90;;;;;;5038323;28;20032;-66
2023/10/01 01:27:40;;;;;;;7.57;3.33;;;11.70;99.90;;;;;;5038313;28;20044;-66
2023/10/01 01:30:09;;;;;;;7.07;2.90;;;11.70;99.90;;;;;;5038700;28;20057;-66
2023/10/01 01:32:36;;;;;;;7.00;2.75;;;11.60;99.90;;;;;;5038236;28;20025;-66
2023/10/01 01:35:04;;;;;;;4.75;2.53;;;11.40;99.90;;;;;;5038539;28;20029;-66
2023/10/01 01:37:36;;;;;;;7.53;3.03;;;11.30;99.90;;;;;;5038419;28;20025;-66
2023/10/01 01:40:13;;;;;;;5.68;2.97;;;11.20;99.90;;;;;;5038690;28;20029;-66
2023/10/01 01:42:38;;;;;;;5.82;2.72;;;11.10;99.90;;;;;;5038828;28;20030;-66
2023/10/01 01:45:19;;;;;;;6.70;2.88;;;10.80;99.90;;;;;;5038018;28;20111;-66
2023/10/01 01:47:45;;;;;;;6.80;2.17;;;10.80;99.90;;;;;;5037079;28;20022;-66
2023/10/01 01:50:44;;;;;;;5.65;2.75;;;10.90;99.90;;;;;;5038123;28;20052;-66
2023/10/01 01:53:04;;;;;;;;;;;10.90;99.90;;;;;;5036829;28;20112;-66
2023/10/01 01:55:34;;;;;;;5.32;2.65;;;11.00;99.90;;;;;;5038419;28;19970;-66
2023/10/01 02:00:31;;;;;;;9.68;3.40;;;11.20;99.90;;;;;;5038974;28;20133;-66
2023/10/01 02:02:59;;;;;;;7.15;3.55;;;11.30;99.90;;;;;;5038441;28;20021;-66
2023/10/01 02:05:29;;;;;;;9.55;3.20;;;11.30;99.90;;;;;;5037509;28;20025;-66
2023/10/01 02:07:55;;;;;;;5.82;3.10;;;11.30;99.90;;;;;;5037762;28;20025;-66
2023/10/01 02:10:20;;;;;;;6.43;3.30;;;11.10;99.90;;;;;;5038580;28;20036;-66
2023/10/01 02:12:50;;;;;;;6.07;2.28;;;11.10;99.90;;;;;;5037722;28;20072;-66
2023/10/01 02:15:18;;;;;;;11.07;3.58;;;11.00;99.90;;;;;;5044167;22;20046;-67
2023/10/01 02:17:43;;;;;;;8.15;2.70;;;11.00;99.90;;;;;;5018565;28;20052;-67
2023/10/01 02:20:22;;;;;;;6.70;2.65;;;11.00;99.90;;;;;;5017760;28;20025;-67
2023/10/01 02:22:48;;;;;;;6.78;2.38;;;10.90;99.90;;;;;;5018450;28;20109;-67
2023/10/01 02:25:16;;;;;;;7.22;3.03;;;10.90;99.90;;;;;;5018138;28;20025;-67
2023/10/01 02:28:05;;;;;;;4.22;2.22;;;10.90;99.90;;;;;;5018264;28;20022;-67
2023/10/01 02:30:32;;;;;;;7.22;2.85;;;11.00;99.90;;;;;;5018327;28;20056;-67
2023/10/01 02:33:16;;;;;;;5.82;2.65;;;11.00;99.90;;;;;;5018159;28;20052;-67
2023/10/01 02:35:42;;;;;;;4.78;2.65;;;11.00;99.90;;;;;;5018128;28;20077;-67
2023/10/01 02:38:36;;;;;;;5.13;2.50;;;11.00;99.90;;;;;;5017978;28;20037;-67
2023/10/01 02:41:01;;;;;;;9.13;2.55;;;11.00;99.90;;;;;;5017979;28;20097;-67
2023/10/01 02:43:33;;;;;;;4.68;2.80;;;10.90;99.90;;;;;;5017878;28;20046;-67
2023/10/01 02:46:26;;;;;;;4.97;2.60;;;10.90;99.90;;;;;;5018106;28;20029;-67
2023/10/01 02:48:59;;;;;;;6.60;2.72;;;11.00;99.90;;;;;;5017025;28;20026;-67
2023/10/01 02:51:37;;;;;;;7.00;3.20;;;11.10;99.90;;;;;;5017442;28;20089;-67
2023/10/01 02:54:05;;;;;;;7.78;3.63;;;11.10;99.90;;;;;;5017839;28;20101;-67
2023/10/01 02:56:37;;;;;;;8.68;3.20;;;11.10;99.90;;;;;;5017673;28;20106;-67
2023/10/01 02:59:07;;;;;;;5.57;2.35;;;11.10;99.90;;;;;;5017837;28;20024;-67
2023/10/01 03:01:34;;;;;;;9.82;3.22;;;10.80;99.90;;;;;;5017728;28;20022;-67
2023/10/01 03:04:05;;;;;;;8.07;2.67;;;10.70;99.90;;;;;;5017808;28;20026;-67
2023/10/01 03:06:33;;;;;;;5.43;2.90;;;10.60;99.90;;;;;;5017845;28;20044;-67
2023/10/01 03:11:25;;;;;;;7.72;2.30;;;10.50;99.90;;;;;;5018217;28;20110;-67
2023/10/01 03:13:54;;;;;;;5.97;2.70;;;10.60;99.90;;;;;;5017222;28;20053;-67
2023/10/01 03:16:40;;;;;;;6.95;2.83;;;10.60;99.90;;;;;;5017459;28;20101;-67
2023/10/01 03:19:25;;;;;;;4.63;2.58;;;10.50;99.90;;;;;;5017510;28;20018;-67
2023/10/01 03:24:30;;;;;;;6.45;3.03;;;10.40;99.90;;;;;;5017594;28;20026;-67
2023/10/01 03:27:19;;;;;;;5.43;2.85;;;10.40;99.90;;;;;;5017339;28;20045;-66
2023/10/01 03:29:45;;;;;;;5.60;2.90;;;10.40;99.90;;;;;;5017477;28;20160;-66
2023/10/01 03:32:29;;;;;;;6.22;2.60;;;10.40;99.90;;;;;;5017081;28;20030;-67
2023/10/01 03:34:55;;;;;;;7.57;2.47;;;10.30;99.90;;;;;;5016723;28;20026;-67
2023/10/01 03:37:27;;;;;;;8.73;3.03;;;10.40;99.90;;;;;;5016396;28;20025;-66
2023/10/01 03:39:53;;;;;;;;;;;10.50;99.90;;;;;;5017817;28;20022;-66
2023/10/01 03:42:19;;;;;;;6.45;2.80;;;10.40;99.90;;;;;;5017254;28;19928;-67
2023/10/01 03:45:25;;;;;;;9.30;2.88;;;10.50;99.90;;;;;;5017374;28;20022;-67
2023/10/01 03:47:58;;;;;;;14.30;3.17;;;10.50;99.90;;;;;;5016958;28;20025;-67
2023/10/01 03:50:26;;;;;;;5.82;3.28;;;10.60;99.90;;;;;;5017445;28;20014;-67
2023/10/01 03:52:54;;;;;;;4.80;2.42;;;10.60;99.90;;;;;;5016108;28;20033;-66
2023/10/01 03:55:26;;;;;;;4.65;2.88;;;10.60;99.90;;;;;;5017014;28;20033;-67
2023/10/01 04:00:34;;;;;;;8.07;3.20;;;10.70;99.90;;;;;;5017685;28;20096;-67
2023/10/01 04:03:01;;;;;;;6.30;3.17;;;10.70;99.90;;;;;;5017129;28;20018;-67
2023/10/01 04:05:42;;;;;;;4.38;2.95;;;10.70;99.90;;;;;;5016891;28;20025;-67
2023/10/01 04:08:12;;;;;;;8.35;2.60;;;10.60;99.90;;;;;;5017249;28;20022;-67
2023/10/01 04:10:39;;;;;;;6.20;2.30;;;10.50;99.90;;;;;;5019144;28;20022;-67
2023/10/01 04:13:12;;;;;;;7.32;2.53;;;10.40;99.90;;;;;;5020661;28;20022;-67
2023/10/01 04:15:47;;;;;;;6.47;2.72;;;10.40;99.90;;;;;;5020780;28;20030;-67
2023/10/01 04:23:32;;;;;;;7.57;2.58;;;10.20;99.90;;;;;;5020735;28;20029;-67
2023/10/01 04:26:06;;;;;;;5.15;2.33;;;10.10;99.90;;;;;;5020742;28;20033;-67
2023/10/01 04:28:35;;;;;;;5.28;2.40;;;10.10;99.90;;;;;;5019681;28;20037;-67
2023/10/01 04:31:09;;;;;;;8.23;2.38;;;10.10;99.90;;;;;;5020457;28;20056;-67
2023/10/01 04:33:42;;;;;;;6.90;2.65;;;10.20;99.90;;;;;;5019300;28;20036;-67
2023/10/01 04:36:11;;;;;;;4.88;2.15;;;10.20;99.90;;;;;;5020324;28;20093;-67
2023/10/01 04:38:37;;;;;;;4.90;2.47;;;10.10;99.90;;;;;;5020300;28;20049;-67
2023/10/01 04:41:03;;;;;;;5.40;2.80;;;10.00;99.90;;;;;;5020414;28;20032;-67
2023/10/01 04:43:35;;;;;;;5.95;2.67;;;10.00;99.90;;;;;;5020172;28;20053;-67
2023/10/01 04:46:08;;;;;;;7.90;2.45;;;10.00;99.90;;;;;;5020397;28;20029;-67
2023/10/01 04:48:36;;;;;;;4.65;2.30;;;10.00;99.90;;;;;;5020151;28;20083;-67
2023/10/01 04:51:07;;;;;;;5.35;2.17;;;10.10;99.90;;;;;;5019991;28;20029;-67
2023/10/01 04:53:33;;;;;;;4.83;2.07;;;10.10;99.90;;;;;;5018898;28;20026;-66
2023/10/01 04:56:03;;;;;;;5.05;2.83;;;10.10;99.90;;;;;;5019308;28;20272;-66
2023/10/01 04:58:32;;;;;;;5.50;2.50;;;10.00;99.90;;;;;;5019963;28;20022;-67
2023/10/01 05:00:58;;;;;;;5.35;2.47;;;10.00;99.90;;;;;;5019926;28;20100;-67
2023/10/01 05:03:39;;;;;;;4.57;2.10;;;10.00;99.90;;;;;;5019990;28;20032;-67
2023/10/01 05:06:27;;;;;;;4.22;2.08;;;10.00;99.90;;;;;;5019782;28;20024;-67
2023/10/01 05:08:56;;;;;;;5.75;2.60;;;10.00;99.90;;;;;;5020144;28;20097;-67
2023/10/01 05:11:22;;;;;;;5.72;2.53;;;10.00;99.90;;;;;;5019713;28;20022;-66
2023/10/01 05:13:51;;;;;;;4.43;2.22;;;9.90;99.90;;;;;;5019575;28;20117;-67
2023/10/01 05:16:20;;;;;;;5.20;2.15;;;9.90;99.90;;;;;;5020062;28;20018;-67
2023/10/01 05:18:46;;;;;;;3.17;2.33;;;9.90;99.90;;;;;;5019738;28;20018;-67
2023/10/01 05:21:18;;;;;;;4.72;2.00;;;10.00;99.90;;;;;;5018028;28;20109;-67
2023/10/01 05:23:45;;;;;;;3.65;2.05;;;10.20;99.90;;;;;;5019021;28;20125;-67
2023/10/01 05:26:11;;;;;;;4.45;2.03;;;10.30;99.90;;;;;;5019389;28;20030;-67
2023/10/01 05:28:41;;;;;;;6.18;2.63;;;10.20;99.90;;;;;;5019317;28;20049;-67
2023/10/01 05:31:08;;;;;;;6.18;2.92;;;10.10;99.90;;;;;;5018677;28;20026;-67
2023/10/01 05:33:35;;;;;;;3.83;2.42;;;10.00;99.90;;;;;;5019077;28;20025;-67
2023/10/01 05:36:05;;;;;;;8.88;2.58;;;10.00;99.90;;;;;;5018283;28;20026;-66
2023/10/01 05:38:35;;;;;;;5.68;2.50;;;10.00;99.90;;;;;;5019368;28;20022;-66
2023/10/01 05:41:13;;;;;;;4.97;2.10;;;10.00;99.90;;;;;;5019091;28;20026;-67
2023/10/01 05:43:43;;;;;;;7.65;2.50;;;9.90;99.90;;;;;;5018905;28;20030;-67
2023/10/01 05:46:12;;;;;;;3.95;1.90;;;9.90;99.90;;;;;;5019305;28;20033;-67
2023/10/01 05:48:41;;;;;;;6.10;2.30;;;9.90;99.90;;;;;;5019227;28;20057;-67
2023/10/01 05:51:11;;;;;;;6.63;3.42;;;9.90;99.90;;;;;;5017998;28;20110;-66
2023/10/01 05:53:40;;;;;;;4.90;2.20;;;9.90;99.90;;;;;;5018548;28;20025;-67
2023/10/01 05:56:07;;;;;;;7.15;2.40;;;10.00;99.90;;;;;;5017903;28;20054;-66
2023/10/01 05:58:36;;;;;;;4.20;2.80;;;10.20;99.90;;;;;;5018722;28;20022;-67
2023/10/01 06:01:14;;;;;;;8.70;3.42;;;10.30;99.90;;;;;;5018761;28;20030;-67
2023/10/01 06:03:49;;;;;;;4.15;2.50;;;10.40;99.90;;;;;;5018654;28;20080;-67
2023/10/01 06:06:24;;;;;;;7.93;3.08;;;10.40;99.90;;;;;;5018920;28;20060;-67
2023/10/01 06:09:00;;;;;;;5.22;2.58;;;10.50;99.90;;;;;;5018565;28;20022;-67
2023/10/01 06:11:42;;;;;;;11.02;2.75;;;10.60;99.90;;;;;;5017904;28;20025;-67
2023/10/01 06:14:29;;;;;;;4.07;2.03;;;10.60;99.90;;;;;;5018461;28;20026;-67
2023/10/01 06:17:00;;;;;;;5.15;2.80;;;10.60;99.90;;;;;;5018855;28;20029;-67
2023/10/01 06:19:27;;;;;;;4.05;2.63;;;10.40;99.90;;;;;;5017484;28;20026;-67
2023/10/01 06:22:12;;;;;;;5.15;2.70;;;10.40;99.90;;;;;;5017593;28;20113;-67
2023/10/01 06:24:44;;;;;;;5.20;2.72;;;10.30;99.90;;;;;;5018431;28;20028;-67
2023/10/01 06:27:17;;;;;;;6.07;2.38;;;10.30;99.90;;;;;;5018261;28;20121;-66
2023/10/01 06:29:49;;;;;;;6.18;2.85;;;10.40;99.90;;;;;;5017341;28;20029;-67
2023/10/01 06:32:19;;;;;;;;;;;10.50;99.90;;;;;;5017153;28;20021;-66
2023/10/01 06:34:46;;;;;;;5.20;2.97;;;10.70;99.90;;;;;;5018057;28;19905;-67
2023/10/01 06:37:12;;;;;;;12.18;3.88;;;10.80;99.90;;;;;;5018191;28;20029;-67
2023/10/01 06:39:40;;;;;;;10.20;3.53;;;10.90;99.90;;;;;;5017077;28;20056;-67
2023/10/01 06:42:18;;;;;;;8.80;4.15;;;11.00;99.90;;;;;;5018111;28;20037;-67
2023/10/01 06:44:48;;;;;;;7.40;3.53;;;11.10;99.90;;;;;;5017451;28;20048;-67
2023/10/01 06:47:15;;;;;;;9.07;3.33;;;11.00;99.90;;;;;;5017855;28;20097;-67
2023/10/01 06:52:32;;;;;;;5.57;3.08;;;10.60;99.90;;;;;;5018313;28;20176;-67
2023/10/01 06:54:59;;;;;;;9.90;3.63;;;10.60;99.90;;;;;;5017716;28;20017;-67
2023/10/01 06:57:28;;;;;;;8.07;3.00;;;10.50;99.90;;;;;;5017733;28;20022;-67
2023/10/01 06:59:56;;;;;;;7.47;3.58;;;10.50;99.90;;;;;;5017190;28;20022;-67
2023/10/01 07:02:26;;;;;;;7.68;4.25;;;10.70;99.90;;;;;;5017617;28;20025;-67
2023/10/01 07:04:56;;;;;;;8.13;3.72;;;10.80;99.90;;;;;;5017327;28;20029;-67
2023/10/01 07:07:28;;;;;;;7.68;3.95;;;10.90;99.90;;;;;;5018073;28;20032;-67
2023/10/01 07:09:56;;;;;;;7.78;3.65;;;11.10;99.90;;;;;;5017835;28;20093;-67
2023/10/01 07:12:23;;;;;;;8.32;4.03;;;11.20;99.90;;;;;;5016640;28;20018;-67
2023/10/01 07:14:52;;;;;;;13.70;5.18;;;11.30;99.90;;;;;;5017729;28;20036;-67
2023/10/01 07:17:24;;;;;;;9.63;4.53;;;11.50;99.90;;;;;;5017769;28;20026;-67
2023/10/01 07:20:00;;;;;;;16.52;5.40;;;11.50;99.90;;;;;;5017449;28;20022;-67
2023/10/01 07:22:34;;;;;;;11.93;5.07;;;11.60;99.90;;;;;;5017673;28;20058;-67
2023/10/01 07:25:00;;;;;;;9.88;4.95;;;11.80;99.90;;;;;;5017479;28;20022;-67
2023/10/01 07:27:27;;;;;;;8.73;4.68;;;11.80;99.90;;;;;;5016705;28;20026;-67
2023/10/01 07:29:56;;;;;;;14.45;4.80;;;11.80;99.90;;;;;;5017216;28;20021;-67
2023/10/01 07:32:24;;;;;;;8.60;4.22;;;11.90;99.90;;;;;;5017220;28;20021;-67
2023/10/01 07:34:58;;;;;;;9.63;5.20;;;12.10;99.90;;;;;;5016584;28;20029;-67
2023/10/01 07:37:25;;;;;;;9.48;4.85;;;12.30;99.90;;;;;;5017427;28;20160;-67
2023/10/01 07:39:55;;;;;;;11.80;5.28;;;12.50;99.90;;;;;;5017371;28;20022;-67
2023/10/01 07:42:22;;;;;;;14.10;5.78;;;12.30;99.90;;;;;;5017154;28;20029;-67
2023/10/01 07:44:49;;;;;;;21.10;5.90;;;12.40;99.90;;;;;;5017292;28;20152;-67
2023/10/01 07:47:28;;;;;;;11.75;5.18;;;12.50;99.90;;;;;;5021194;28;20022;-67
2023/10/01 07:49:56;;;;;;;11.50;5.78;;;12.50;99.90;;;;;;5021341;28;20021;-67
2023/10/01 07:52:23;;;;;;;10.13;4.72;;;12.70;99.90;;;;;;5020456;28;20026;-67
2023/10/01 07:54:49;;;;;;;11.80;5.22;;;12.90;99.90;;;;;;5020267;28;20046;-67
2023/10/01 07:57:16;;;;;;;11.98;5.25;;;13.00;99.90;;;;;;5021117;28;20022;-67
2023/10/01 07:59:43;;;;;;;13.43;6.10;;;13.10;99.90;;;;;;5021155;28;20026;-67
2023/10/01 08:02:13;;;;;;;12.07;5.20;;;12.90;99.90;;;;;;5021111;28;20026;-65
2023/10/01 08:05:00;;;;;;;13.25;5.85;;;13.00;99.90;;;;;;5021236;28;20029;-65
2023/10/01 08:07:30;;;;;;;11.73;4.97;;;13.10;99.90;;;;;;5020583;28;20042;-65
2023/10/01 08:09:59;;;;;;;12.93;5.57;;;13.10;99.90;;;;;;5020942;28;20022;-65
2023/10/01 08:12:29;;;;;;;9.98;5.07;;;13.30;99.90;;;;;;5020703;28;20323;-66
2023/10/01 08:17:54;;;;;;;12.52;4.88;;;13.60;99.90;;;;;;5012745;28;20037;-65
2023/10/01 08:20:21;;;;;;;14.65;5.35;;;13.70;99.90;;;;;;5020727;28;20018;-68
2023/10/01 08:25:55;;;;;;;8.85;4.72;;;13.70;99.90;;;;;;4999695;28;20041;-68
2023/10/01 08:31:01;;;;;;;12.27;5.18;;;13.90;99.90;;;;;;4999258;28;20030;-65
2023/10/01 08:33:32;;;;;;;10.73;4.80;;;14.20;99.90;;;;;;4999448;28;20038;-65
2023/10/01 08:36:01;;;;;;;8.90;4.85;;;14.20;99.90;;;;;;4999458;28;20027;-65
2023/10/01 08:38:29;;;;;;;10.50;5.20;;;14.20;99.90;;;;;;4999270;28;20113;-65
2023/10/01 08:41:00;;;;;;;8.85;4.93;;;14.10;99.90;;;;;;4999086;28;20058;-65
2023/10/01 08:43:30;;;;;;;9.05;4.63;;;14.10;99.90;;;;;;4999122;28;20046;-65
2023/10/01 08:46:00;;;;;;;10.73;5.50;;;14.20;99.90;;;;;;4999375;28;20034;-65
2023/10/01 08:48:35;;;;;;;10.75;3.63;;;14.40;99.90;;;;;;4998989;28;20026;-65
2023/10/01 08:51:08;;;;;;;12.02;4.93;;;14.50;99.90;;;;;;4999272;28;20045;-66
2023/10/01 08:53:36;;;;;;;11.10;4.75;;;14.60;99.90;;;;;;4998633;28;20041;-65
2023/10/01 08:56:04;;;;;;;10.23;4.70;;;14.70;99.90;;;;;;5003920;28;20084;-65
2023/10/01 08:58:41;;;;;;;8.52;4.28;;;14.80;99.90;;;;;;5020092;28;20026;-65
2023/10/01 09:01:12;;;;;;;7.68;3.95;;;14.80;99.90;;;;;;5020152;28;20018;-65
2023/10/01 09:03:38;;;;;;;9.15;4.15;;;14.80;99.90;;;;;;5019791;28;20025;-65
2023/10/01 09:06:06;;;;;;;11.93;4.20;;;14.90;99.90;;;;;;5019700;28;20029;-65
2023/10/01 09:08:45;;;;;;;7.93;3.92;;;15.10;99.90;;;;;;5019854;28;20030;-65
2023/10/01 09:11:16;;;;;;;11.23;3.95;;;15.20;99.90;;;;;;5019966;28;20022;-65
2023/10/01 09:16:42;;;;;;;9.82;4.15;;;15.70;99.90;;;;;;5019816;28;20028;-72
2023/10/01 09:19:30;;;;;;;7.25;3.80;;;15.60;99.90;;;;;;5019706;28;20021;-72
2023/10/01 09:22:05;;;;;;;15.13;4.95;;;15.70;99.90;;;;;;5018631;28;20037;-72
2023/10/01 09:24:34;;;;;;;11.30;4.30;;;15.90;99.90;;;;;;5019588;28;20100;-72
2023/10/01 09:27:09;;;;;;;8.43;4.00;;;15.90;99.90;;;;;;5019241;28;20113;-72
2023/10/01 09:29:43;;;;;;;7.43;4.43;;;15.90;99.90;;;;;;5019604;28;20057;-72
2023/10/01 09:32:11;;;;;;;8.52;4.00;;;16.00;99.90;;;;;;5018511;28;20056;-72
2023/10/01 09:34:46;;;;;;;10.63;4.15;;;16.00;99.90;;;;;;5019521;28;20049;-73
2023/10/01 09:37:17;;;;;;;9.73;4.15;;;16.00;99.90;;;;;;5019244;28;20029;-72
2023/10/01 09:39:43;;;;;;;8.88;4.28;;;16.20;99.90;;;;;;5018937;28;20036;-72
2023/10/01 09:42:24;;;;;;;8.90;4.03;;;16.50;99.90;;;;;;5018258;28;20093;-72
2023/10/01 09:45:09;;;;;;;12.27;4.87;;;16.60;99.90;;;;;;5019304;28;20018;-72
2023/10/01 09:47:35;;;;;;;9.68;4.15;;;16.80;99.90;;;;;;5019232;28;20276;-72
2023/10/01 09:50:05;;;;;;;10.18;4.82;;;17.00;99.90;;;;;;5019026;28;20026;-72
2023/10/01 09:52:48;;;;;;;8.02;3.42;;;17.00;99.90;;;;;;5018380;28;20030;-73
2023/10/01 09:55:26;;;;;;;15.13;4.40;;;17.20;99.90;;;;;;5019229;28;20025;-72
2023/10/01 09:57:54;;;;;;;6.57;3.72;;;17.30;99.90;;;;;;5018088;28;20080;-72
2023/10/01 10:00:21;;;;;;;10.75;4.40;;;17.40;99.90;;;;;;5018886;28;20077;-72
2023/10/01 10:02:54;;;;;;;11.20;4.15;;;17.50;99.90;;;;;;5018890;28;20045;-72
2023/10/01 10:05:28;;;;;;;9.75;4.10;;;17.60;99.90;;;;;;5018441;28;20030;-72
2023/10/01 10:07:55;;;;;;;10.38;4.30;;;17.80;99.90;;;;;;5018137;28;20022;-72
2023/10/01 10:10:24;;;;;;;10.30;3.90;;;18.00;99.90;;;;;;5017742;28;20036;-72
2023/10/01 10:12:56;;;;;;;8.88;4.03;;;18.10;99.90;;;;;;5018508;28;20026;-72
2023/10/01 10:16:00;;;;;;;;;;;18.20;99.90;;;;;;5018787;28;20033;-73
2023/10/01 10:18:32;;;;;;;6.95;3.40;;;18.50;99.90;;;;;;4957726;29;19942;-72
2023/10/01 10:20:59;;;;;;;12.10;4.03;;;19.00;99.90;;;;;;4941733;29;20110;-73
2023/10/01 10:23:31;;;;;;;10.27;4.03;;;19.30;99.90;;;;;;4957638;29;20035;-73
2023/10/01 10:26:32;;;;;;;9.48;4.30;;;19.60;99.90;;;;;;4941646;29;20078;-73
2023/10/01 10:28:58;;;;;;;;;;;19.80;99.90;;;;;;4941819;29;20032;-73
2023/10/01 10:31:33;;;;;;;8.70;3.55;;;20.20;99.90;;;;;;4957654;29;19910;-73
2023/10/01 10:34:25;;;;;;;8.63;3.78;;;20.40;99.90;;;;;;4941698;29;20086;-72
2023/10/01 10:36:53;;;;;;;9.13;4.03;;;20.10;99.90;;;;;;4941608;29;20032;-74
2023/10/01 10:39:56;;;;;;;6.63;3.38;;;20.50;99.90;;;;;;4957461;29;20042;-73
2023/10/01 10:42:30;;;;;;;9.25;4.40;;;21.10;99.90;;;;;;4957793;29;20046;-73
2023/10/01 10:45:19;;;;;;;11.52;4.00;;;21.00;99.90;;;;;;4957362;29;20033;-73
2023/10/01 10:48:01;;;;;;;11.82;3.88;;;21.70;99.90;;;;;;4957407;29;20027;-73
2023/10/01 10:50:44;;;;;;;8.13;4.45;;;22.00;99.90;;;;;;5017515;28;20026;-74
2023/10/01 10:53:15;;;;;;;6.63;3.47;;;21.90;99.90;;;;;;5016863;28;20167;-73
2023/10/01 10:56:00;;;;;;;8.73;3.70;;;21.30;99.90;;;;;;5017137;28;20022;-74
2023/10/01 10:58:28;;;;;;;10.25;4.03;;;21.80;99.90;;;;;;5017021;28;20022;-73
2023/10/01 11:01:15;;;;;;;7.95;3.70;;;22.00;99.90;;;;;;5017355;28;20042;-73
2023/10/01 11:03:42;;;;;;;12.15;4.43;;;22.10;99.90;;;;;;5015903;28;20030;-73
2023/10/01 11:06:29;;;;;;;9.32;4.15;;;22.20;99.90;;;;;;5016082;28;20032;-73
2023/10/01 11:08:56;;;;;;;8.32;4.18;;;22.00;99.90;;;;;;5017140;28;20025;-73
2023/10/01 11:11:28;;;;;;;7.93;3.80;;;21.90;99.90;;;;;;5016771;28;20050;-73
2023/10/01 11:14:00;;;;;;;10.07;4.18;;;22.30;99.90;;;;;;4980307;28;1066681;-73
2023/10/01 11:16:39;;;;;;;8.90;4.15;;;22.70;99.90;;;;;;5017434;28;20026;-73
2023/10/01 11:19:12;;;;;;;12.02;4.70;;;23.30;99.90;;;;;;5017836;28;20160;-73
2023/10/01 11:22:00;;;;;;;9.02;4.38;;;24.00;99.90;;;;;;5017440;28;20049;-73
2023/10/01 11:24:35;;;;;;;9.70;4.68;;;24.40;99.90;;;;;;5016507;28;20022;-73
2023/10/01 11:27:21;;;;;;;9.80;4.70;;;23.70;99.90;;;;;;5017490;28;20108;-73
2023/10/01 11:30:12;;;;;;;7.40;4.03;;;23.10;99.90;;;;;;5017827;28;20018;-73
2023/10/01 11:33:12;;;;;;;11.23;4.60;;;23.20;99.90;;;;;;5017647;28;20045;-73
2023/10/01 11:36:09;;;;;;;10.43;4.75;;;23.60;99.90;;;;;;5017723;28;20101;-73
2023/10/01 11:38:37;;;;;;;11.13;5.20;;;23.90;99.90;;;;;;5017254;28;20022;-73
2023/10/01 11:41:08;;;;;;;8.18;4.03;;;24.00;99.90;;;;;;5017383;28;20022;-74
2023/10/01 11:43:45;;;;;;;13.20;5.37;;;23.80;99.90;;;;;;5016190;28;20029;-73
2023/10/01 11:46:19;;;;;;;8.77;4.57;;;23.40;99.90;;;;;;5017876;28;20336;-73
2023/10/01 11:49:02;;;;;;;9.30;4.10;;;23.10;99.90;;;;;;5016581;28;20026;-73
2023/10/01 11:51:45;;;;;;;10.35;4.88;;;24.10;99.90;;;;;;5017616;28;20048;-73
2023/10/01 11:54:20;;;;;;;12.95;4.90;;;24.90;99.90;;;;;;5017115;28;20080;-73
2023/10/01 11:57:04;;;;;;;10.45;4.97;;;25.10;99.90;;;;;;5016261;28;20113;-73
2023/10/01 11:59:30;;;;;;;14.60;5.32;;;25.60;99.90;;;;;;5016325;28;20025;-73
2023/10/01 12:02:15;;;;;;;10.05;4.90;;;26.40;99.90;;;;;;5016629;28;20026;-74
2023/10/01 12:04:45;;;;;;;11.77;4.95;;;25.70;99.90;;;;;;5016893;28;20057;-74
2023/10/01 12:07:17;;;;;;;11.77;4.72;;;26.00;99.90;;;;;;5016900;28;20029;-74
2023/10/01 12:09:51;;;;;;;13.95;5.57;;;26.50;99.90;;;;;;5016977;28;20117;-74
2023/10/01 12:12:18;;;;;;;9.02;4.78;;;25.30;99.90;;;;;;5016859;28;20037;-73
2023/10/01 12:14:56;;;;;;;9.95;4.97;;;25.10;99.90;;;;;;5016129;28;20034;-73
2023/10/01 12:17:23;;;;;;;12.75;4.80;;;25.20;99.90;;;;;;5017003;28;20022;-73
2023/10/01 12:20:03;;;;;;;13.38;5.82;;;24.70;99.90;;;;;;5016941;28;20018;-73
2023/10/01 12:22:30;;;;;;;10.55;4.97;;;24.40;99.90;;;;;;5015976;28;20022;-73
2023/10/01 12:24:59;;;;;;;14.27;6.13;;;24.30;99.90;;;;;;5015762;28;20090;-73
2023/10/01 12:27:38;;;;;;;11.80;5.55;;;24.40;99.90;;;;;;5016817;28;20025;-73
2023/10/01 12:30:11;;;;;;;13.27;6.13;;;24.60;99.90;;;;;;5015757;28;20026;-73
2023/10/01 12:32:48;;;;;;;10.55;5.13;;;24.30;99.90;;;;;;5020309;28;20026;-73
2023/10/01 12:35:29;;;;;;;14.68;7.55;;;24.40;99.90;;;;;;5019816;28;20112;-73
2023/10/01 12:40:43;;;;;;;13.10;6.43;;;24.30;99.90;;;;;;5020578;28;19905;-74
2023/10/01 12:45:54;;;;;;;13.15;5.95;;;24.40;99.90;;;;;;5020511;28;20080;-73
2023/10/01 12:48:20;;;;;;;12.20;5.90;;;25.00;99.90;;;;;;5020144;28;20059;-73
2023/10/01 12:51:03;;;;;;;24.83;7.45;;;24.90;99.90;;;;;;5019338;28;20061;-73
2023/10/01 12:53:47;;;;;;;14.20;5.97;;;24.50;99.90;;;;;;5019033;28;20033;-73
2023/10/01 12:56:14;;;;;;;13.38;6.93;;;25.20;99.90;;;;;;5020134;28;20052;-74
2023/10/01 12:58:43;;;;;;;15.25;6.78;;;25.00;99.90;;;;;;5019275;28;20026;-73
2023/10/01 13:01:23;;;;;;;13.75;6.30;;;25.60;99.90;;;;;;5019102;28;20022;-74
2023/10/01 13:03:51;;;;;;;13.93;6.72;;;25.80;99.90;;;;;;5019905;28;20021;-73
2023/10/01 13:06:16;;;;;;;14.82;6.13;;;26.50;99.90;;;;;;5019833;28;20057;-74
2023/10/01 13:08:42;;;;;;;13.50;7.05;;;26.20;99.90;;;;;;5018847;28;20026;-73
2023/10/01 13:11:09;;;;;;;15.15;6.93;;;25.50;99.90;;;;;;5019315;28;20090;-73
2023/10/01 13:13:35;;;;;;;12.98;6.30;;;25.30;99.90;;;;;;5019565;28;20025;-73
2023/10/01 13:16:01;;;;;;;15.20;6.82;;;25.00;99.90;;;;;;5019564;28;20026;-73
2023/10/01 13:18:33;;;;;;;12.93;5.95;;;24.80;99.90;;;;;;5019975;28;20014;-74
2023/10/01 13:21:06;;;;;;;13.85;6.18;;;25.40;99.90;;;;;;5019743;28;20018;-74
2023/10/01 13:23:41;;;;;;;12.48;6.05;;;25.50;99.90;;;;;;5018521;28;20018;-73
2023/10/01 13:26:31;;;;;;;14.57;7.10;;;25.50;99.90;;;;;;5019617;28;20018;-73
2023/10/01 13:29:00;;;;;;;15.52;6.30;;;25.40;99.90;;;;;;5018792;28;20032;-74
2023/10/01 13:33:56;;;;;;;16.67;7.30;;;26.00;99.90;;;;;;5019383;28;20076;-74
2023/10/01 13:36:35;;;;;;;13.52;6.78;;;26.70;99.90;;;;;;5019685;28;20022;-73
2023/10/01 14:09:15;;;;;;;15.52;6.68;;;27.70;99.90;;;;;;5019122;28;20109;-74
2023/10/01 14:11:41;;;;;;;14.52;6.63;;;27.60;99.90;;;;;;5018893;28;20037;-75
2023/10/01 14:14:08;;;;;;;13.77;6.47;;;28.40;99.90;;;;;;5047538;22;20046;-76
2023/10/01 14:16:34;;;;;;;15.55;6.68;;;27.90;99.90;;;;;;5037496;28;20026;-76
2023/10/01 14:19:14;;;;;;;12.38;6.47;;;27.20;99.90;;;;;;5037432;28;20028;-76